createdAt,value
2022-08-08T00:00:52.851Z,6.15
2022-08-08T00:03:31.585Z,4.55
2022-08-08T00:06:49.919Z,4.87
2022-08-08T00:10:14.204Z,5.18
2022-08-08T00:14:12.188Z,4.63
2022-08-08T00:17:23.334Z,4.70
2022-08-08T00:20:37.186Z,6.18
2022-08-08T00:23:47.759Z,4.27
2022-08-08T00:26:58.756Z,4.68
2022-08-08T00:30:15.803Z,4.05
2022-08-08T00:33:29.147Z,4.40
2022-08-08T00:37:03.608Z,4.20
2022-08-08T00:41:12.842Z,3.67
2022-08-08T00:44:00.686Z,5.18
2022-08-08T00:48:05.576Z,3.97
2022-08-08T00:51:16.043Z,4.30
2022-08-08T00:54:36.378Z,3.95
2022-08-08T00:57:57.140Z,4.53
2022-08-08T01:01:11.459Z,3.85
2022-08-08T01:05:42.580Z,4.40
2022-08-08T01:09:36.373Z,4.07
2022-08-08T01:12:59.468Z,4.53
2022-08-08T01:16:39.152Z,4.40
2022-08-08T01:20:13.646Z,3.80
2022-08-08T01:24:05.913Z,3.95
2022-08-08T01:27:33.059Z,3.55
2022-08-08T01:32:06.824Z,3.67
2022-08-08T01:35:30.199Z,3.58
2022-08-08T01:38:56.101Z,3.80
2022-08-08T01:42:17.800Z,3.55
2022-08-08T01:45:50.275Z,4.10
2022-08-08T01:49:10.999Z,3.40
2022-08-08T01:53:09.318Z,4.20
2022-08-08T01:56:34.097Z,3.50
2022-08-08T02:00:12.899Z,3.83
2022-08-08T02:03:58.786Z,3.60
2022-08-08T02:07:16.685Z,3.72
2022-08-08T02:10:45.070Z,4.65
2022-08-08T02:13:53.924Z,4.10
2022-08-08T02:17:20.377Z,2.92
2022-08-08T02:21:13.000Z,3.30
2022-08-08T02:24:56.357Z,3.22
2022-08-08T02:28:52.400Z,3.05
2022-08-08T02:32:15.817Z,3.70
2022-08-08T02:36:05.279Z,3.00
2022-08-08T02:39:40.545Z,3.03
2022-08-08T02:44:37.904Z,3.60
2022-08-08T02:46:52.269Z,4.53
2022-08-08T02:50:17.736Z,3.50
2022-08-08T02:53:36.822Z,3.38
2022-08-08T02:57:16.990Z,3.78
2022-08-08T03:00:51.022Z,3.50
2022-08-08T03:05:03.996Z,3.22
2022-08-08T03:08:11.965Z,4.27
2022-08-08T03:12:01.674Z,3.42
2022-08-08T03:16:00.542Z,3.78
2022-08-08T03:18:54.843Z,3.40
2022-08-08T03:22:00.026Z,3.88
2022-08-08T03:25:17.781Z,3.43
2022-08-08T03:28:32.326Z,3.70
2022-08-08T03:32:06.286Z,4.53
2022-08-08T03:35:11.444Z,3.67
2022-08-08T03:38:56.983Z,4.30
2022-08-08T03:42:27.322Z,3.87
2022-08-08T03:46:05.006Z,4.82
2022-08-08T03:49:15.286Z,3.33
2022-08-08T03:52:17.978Z,3.30
2022-08-08T03:55:56.201Z,4.97
2022-08-08T03:58:52.916Z,3.30
2022-08-08T04:02:13.108Z,3.33
2022-08-08T04:05:19.549Z,3.97
2022-08-08T04:08:33.799Z,3.10
2022-08-08T04:11:48.405Z,3.75
2022-08-08T04:15:13.113Z,3.00
2022-08-08T04:18:16.611Z,4.35
2022-08-08T04:21:23.194Z,2.83
2022-08-08T04:24:31.982Z,3.50
2022-08-08T04:28:02.599Z,3.20
2022-08-08T04:31:04.555Z,3.93
2022-08-08T04:34:08.847Z,3.33
2022-08-08T04:37:12.246Z,3.30
2022-08-08T04:40:17.891Z,3.30
2022-08-08T04:43:32.023Z,4.00
2022-08-08T04:46:53.422Z,2.87
2022-08-08T04:50:01.420Z,3.38
2022-08-08T04:53:14.303Z,4.20
2022-08-08T04:56:35.085Z,3.42
2022-08-08T04:59:42.009Z,3.28
2022-08-08T05:02:48.914Z,4.10
2022-08-08T05:05:56.883Z,4.30
2022-08-08T05:09:02.470Z,3.42
2022-08-08T05:12:09.546Z,3.67
2022-08-08T05:15:23.524Z,3.40
2022-08-08T05:18:34.907Z,3.07
2022-08-08T05:21:43.730Z,4.47
2022-08-08T05:25:00.966Z,3.50
2022-08-08T05:28:05.034Z,3.40
2022-08-08T05:31:30.749Z,3.60
2022-08-08T05:34:43.467Z,3.77
2022-08-08T05:38:04.675Z,3.60
2022-08-08T05:41:29.057Z,3.15
2022-08-08T05:44:49.085Z,2.85
2022-08-08T05:48:00.731Z,3.65
2022-08-08T05:51:14.708Z,3.40
2022-08-08T05:54:28.708Z,3.75
2022-08-08T05:58:04.964Z,6.35
2022-08-08T06:01:11.485Z,3.28
2022-08-08T06:04:23.619Z,5.72
2022-08-08T06:07:32.471Z,5.17
2022-08-08T06:10:40.797Z,3.05
2022-08-08T06:13:49.305Z,3.00
2022-08-08T06:16:58.966Z,5.63
2022-08-08T06:20:13.699Z,3.40
2022-08-08T06:23:29.166Z,2.87
2022-08-08T06:26:52.487Z,3.65
2022-08-08T06:30:19.943Z,2.78
2022-08-08T06:34:26.334Z,3.50
2022-08-08T06:37:24.128Z,3.50
2022-08-08T06:40:39.544Z,3.83
2022-08-08T06:44:01.715Z,3.88
2022-08-08T06:47:10.107Z,4.72
2022-08-08T06:50:17.586Z,3.20
2022-08-08T06:53:39.875Z,3.38
2022-08-08T06:56:55.258Z,2.90
2022-08-08T07:00:10.138Z,3.10
2022-08-08T07:03:51.963Z,3.45
2022-08-08T07:06:55.872Z,2.97
2022-08-08T07:10:08.189Z,3.53
2022-08-08T07:13:25.397Z,3.43
2022-08-08T07:16:51.067Z,3.58
2022-08-08T07:20:05.033Z,2.90
2022-08-08T07:23:28.793Z,2.97
2022-08-08T07:26:53.912Z,2.85
2022-08-08T07:30:05.851Z,2.70
2022-08-08T07:33:17.373Z,3.30
2022-08-08T07:36:22.570Z,4.63
2022-08-08T07:39:35.461Z,2.65
2022-08-08T07:42:54.170Z,3.50
2022-08-08T07:46:18.403Z,3.10
2022-08-08T07:49:21.602Z,3.72
2022-08-08T07:52:26.987Z,3.72
2022-08-08T07:55:36.522Z,3.30
2022-08-08T07:58:43.693Z,3.90
2022-08-08T08:02:35.104Z,3.00
2022-08-08T08:05:33.335Z,2.88
2022-08-08T08:08:52.231Z,3.42
2022-08-08T08:12:00.028Z,2.85
2022-08-08T08:15:11.967Z,3.10
2022-08-08T08:18:32.336Z,3.90
2022-08-08T08:21:57.790Z,3.72
2022-08-08T08:25:42.791Z,3.00
2022-08-08T08:28:49.867Z,3.35
2022-08-08T08:31:57.560Z,3.65
2022-08-08T08:35:03.471Z,3.57
2022-08-08T08:38:18.007Z,3.05
2022-08-08T08:41:27.906Z,3.30
2022-08-08T08:44:34.273Z,3.58
2022-08-08T08:47:44.964Z,3.63
2022-08-08T08:50:52.064Z,3.10
2022-08-08T08:53:59.911Z,3.50
2022-08-08T08:57:17.269Z,3.55
2022-08-08T09:00:24.755Z,3.95
2022-08-08T09:03:31.518Z,4.57
2022-08-08T09:06:56.982Z,3.30
2022-08-08T09:10:01.148Z,5.88
2022-08-08T09:13:17.641Z,4.15
2022-08-08T09:16:29.599Z,3.45
2022-08-08T09:21:57.183Z,3.60
2022-08-08T09:23:00.856Z,3.47
2022-08-08T09:26:09.502Z,3.65
2022-08-08T09:29:26.857Z,3.47
2022-08-08T09:33:01.358Z,3.20
2022-08-08T09:36:07.574Z,3.05
2022-08-08T09:39:19.096Z,3.53
2022-08-08T09:42:26.038Z,4.63
2022-08-08T09:46:01.918Z,3.38
2022-08-08T09:49:18.072Z,3.08
2022-08-08T09:52:59.332Z,3.08
2022-08-08T09:56:04.600Z,3.40
2022-08-08T09:59:39.749Z,4.60
2022-08-08T10:02:40.151Z,3.83
2022-08-08T10:05:46.877Z,3.70
2022-08-08T10:08:50.884Z,3.42
2022-08-08T10:12:26.401Z,3.57
2022-08-08T10:15:18.004Z,4.65
2022-08-08T10:18:35.549Z,3.35
2022-08-08T10:21:42.667Z,3.88
2022-08-08T10:25:00.110Z,2.95
2022-08-08T10:28:06.065Z,3.30
2022-08-08T10:31:47.274Z,4.18
2022-08-08T10:34:58.440Z,4.22
2022-08-08T10:38:07.894Z,5.13
2022-08-08T10:41:17.488Z,3.83
2022-08-08T10:44:40.299Z,3.63
2022-08-08T10:47:48.768Z,3.75
2022-08-08T10:50:57.956Z,3.50
2022-08-08T10:54:02.220Z,3.42
2022-08-08T10:57:05.598Z,3.78
2022-08-08T11:00:13.260Z,3.67
2022-08-08T11:03:36.378Z,3.20
2022-08-08T11:06:41.791Z,3.58
2022-08-08T11:09:50.178Z,3.80
2022-08-08T11:13:25.493Z,4.32
2022-08-08T11:16:32.165Z,4.17
2022-08-08T11:19:36.734Z,3.95
2022-08-08T11:22:42.322Z,3.47
2022-08-08T11:25:53.221Z,5.65
2022-08-08T11:29:03.477Z,3.80
2022-08-08T11:32:07.797Z,3.67
2022-08-08T11:35:24.905Z,3.70
2022-08-08T11:38:35.632Z,4.50
2022-08-08T11:41:43.288Z,4.32
2022-08-08T11:44:46.406Z,3.40
2022-08-08T11:48:02.684Z,3.83
2022-08-08T11:51:29.563Z,3.72
2022-08-08T11:54:38.167Z,3.63
2022-08-08T11:57:51.679Z,3.70
2022-08-08T12:00:58.617Z,3.30
2022-08-08T12:04:04.802Z,4.00
2022-08-08T12:07:16.638Z,4.15
2022-08-08T12:10:28.227Z,4.13
2022-08-08T12:13:37.682Z,4.75
2022-08-08T12:16:54.068Z,3.40
2022-08-08T12:19:57.180Z,3.50
2022-08-08T12:23:00.313Z,4.97
2022-08-08T12:26:16.875Z,4.35
2022-08-08T12:29:40.240Z,4.65
2022-08-08T12:32:45.790Z,4.00
2022-08-08T12:35:52.537Z,3.83
2022-08-08T12:38:55.868Z,4.25
2022-08-08T12:42:01.828Z,4.82
2022-08-08T12:45:53.961Z,4.55
2022-08-08T12:48:37.362Z,3.95
2022-08-08T12:51:50.150Z,4.60
2022-08-08T12:55:13.654Z,4.50
2022-08-08T12:58:19.520Z,4.90
2022-08-08T13:01:37.592Z,4.53
2022-08-08T13:04:51.119Z,4.53
2022-08-08T13:08:03.950Z,4.73
2022-08-08T13:11:24.659Z,4.63
2022-08-08T13:14:53.303Z,4.18
2022-08-08T13:18:09.873Z,4.90
2022-08-08T13:21:16.448Z,4.18
2022-08-08T13:24:38.528Z,4.47
2022-08-08T13:27:42.207Z,4.85
2022-08-08T13:30:45.321Z,4.47
2022-08-08T13:33:50.093Z,4.68
2022-08-08T13:36:56.196Z,5.13
2022-08-08T13:40:04.784Z,5.27
2022-08-08T13:43:07.956Z,5.18
2022-08-08T13:46:26.433Z,6.85
2022-08-08T13:50:35.590Z,5.82
2022-08-08T13:52:55.060Z,5.80
2022-08-08T13:56:02.384Z,4.97
2022-08-08T13:59:05.156Z,4.78
2022-08-08T14:02:35.026Z,4.60
2022-08-08T14:05:57.714Z,4.47
2022-08-08T14:09:24.244Z,4.60
2022-08-08T14:12:34.519Z,5.20
2022-08-08T14:15:39.779Z,5.97
2022-08-08T14:19:10.503Z,5.15
2022-08-08T14:22:22.522Z,4.93
2022-08-08T14:25:26.370Z,4.63
2022-08-08T14:28:29.844Z,5.00
2022-08-08T14:32:05.963Z,4.95
2022-08-08T14:34:57.284Z,4.68
2022-08-08T14:38:09.411Z,5.32
2022-08-08T14:41:45.554Z,5.22
2022-08-08T14:45:10.094Z,5.30
2022-08-08T14:48:12.757Z,6.18
2022-08-08T14:51:19.953Z,5.00
2022-08-08T14:54:28.715Z,6.07
2022-08-08T14:58:03.147Z,5.55
2022-08-08T15:00:54.499Z,5.73
2022-08-08T15:04:08.935Z,6.15
2022-08-08T15:07:21.429Z,5.18
2022-08-08T15:10:28.895Z,5.40
2022-08-08T15:13:40.148Z,7.07
2022-08-08T15:16:55.274Z,5.87
2022-08-08T15:19:59.566Z,5.75
2022-08-08T15:23:03.573Z,5.85
2022-08-08T15:26:09.611Z,5.32
2022-08-08T15:29:15.100Z,5.80
2022-08-08T15:32:20.188Z,5.53
2022-08-08T15:35:23.447Z,5.25
2022-08-08T15:38:27.891Z,6.25
2022-08-08T15:41:43.400Z,5.57
2022-08-08T15:44:46.544Z,5.53
2022-08-08T15:48:15.377Z,5.37
2022-08-08T15:51:11.722Z,5.65
2022-08-08T15:54:38.974Z,5.95
2022-08-08T15:57:42.494Z,6.43
2022-08-08T16:00:50.336Z,6.22
2022-08-08T16:03:53.025Z,5.90
2022-08-08T16:06:56.123Z,8.13
2022-08-08T16:13:05.370Z,6.20
2022-08-08T16:13:30.487Z,5.20
2022-08-08T16:16:44.537Z,5.13
2022-08-08T16:19:59.726Z,5.23
2022-08-08T16:23:04.295Z,5.28
2022-08-08T16:26:17.358Z,6.53
2022-08-08T16:29:36.987Z,5.50
2022-08-08T16:32:39.959Z,5.22
2022-08-08T16:35:49.824Z,6.20
2022-08-08T16:38:53.976Z,6.03
2022-08-08T16:42:01.387Z,5.20
2022-08-08T16:45:11.495Z,5.60
2022-08-08T16:48:32.215Z,5.53
2022-08-08T16:55:04.914Z,7.20
2022-08-08T16:55:42.844Z,6.05
2022-08-08T16:58:31.635Z,7.25
2022-08-08T17:01:39.782Z,6.53
2022-08-08T17:04:42.265Z,7.13
2022-08-08T17:07:51.179Z,6.60
2022-08-08T17:10:59.439Z,7.30
2022-08-08T17:14:19.165Z,6.28
2022-08-08T17:17:41.871Z,7.97
2022-08-08T17:20:44.682Z,7.25
2022-08-08T17:23:58.027Z,6.23
2022-08-08T17:27:04.968Z,6.90
2022-08-08T17:30:14.865Z,5.93
2022-08-08T17:34:36.684Z,6.50
2022-08-08T17:37:02.853Z,5.82
2022-08-08T17:40:14.830Z,6.47
2022-08-08T17:43:17.742Z,5.53
2022-08-08T17:46:41.763Z,5.63
2022-08-08T17:49:46.090Z,6.32
2022-08-08T17:52:53.711Z,6.35
2022-08-08T17:56:07.154Z,6.60
2022-08-08T17:59:10.426Z,7.00
2022-08-08T18:02:16.374Z,6.43
2022-08-08T18:05:23.195Z,5.70
2022-08-08T18:08:38.708Z,5.50
2022-08-08T18:11:49.099Z,5.87
2022-08-08T18:14:53.763Z,6.45
2022-08-08T18:18:09.514Z,6.38
2022-08-08T18:21:24.921Z,5.50
2022-08-08T18:24:37.563Z,6.55
2022-08-08T18:27:43.181Z,5.80
2022-08-08T18:30:47.353Z,6.07
2022-08-08T18:34:26.049Z,6.07
2022-08-08T18:37:17.751Z,7.53
2022-08-08T18:40:36.067Z,6.65
2022-08-08T18:43:43.153Z,5.60
2022-08-08T18:46:55.506Z,6.43
2022-08-08T18:50:02.493Z,6.18
2022-08-08T18:53:05.277Z,6.18
2022-08-08T18:56:07.916Z,6.45
2022-08-08T18:59:11.515Z,6.60
2022-08-08T19:02:29.084Z,6.50
2022-08-08T19:05:38.405Z,6.13
2022-08-08T19:08:46.733Z,7.18
2022-08-08T19:11:51.323Z,6.28
2022-08-08T19:14:57.127Z,7.07
2022-08-08T19:18:33.655Z,6.00
2022-08-08T19:21:30.956Z,6.95
2022-08-08T19:24:53.589Z,6.28
2022-08-08T19:27:59.722Z,6.20
2022-08-08T19:31:07.287Z,5.53
2022-08-08T19:34:36.408Z,5.78
2022-08-08T19:37:43.364Z,6.90
2022-08-08T19:40:55.903Z,6.20
2022-08-08T19:44:03.014Z,8.68
2022-08-08T19:47:06.917Z,6.73
2022-08-08T19:50:12.554Z,8.07
2022-08-08T19:53:51.674Z,7.15
2022-08-08T19:56:41.657Z,7.90
2022-08-08T19:59:51.536Z,12.32
2022-08-08T20:02:53.890Z,11.17
2022-08-08T20:06:14.970Z,10.65
2022-08-08T20:09:22.856Z,8.68
2022-08-08T20:12:32.206Z,8.68
2022-08-08T20:16:00.252Z,9.48
2022-08-08T20:19:00.107Z,8.20
2022-08-08T20:22:05.151Z,7.82
2022-08-08T20:25:20.254Z,7.10
2022-08-08T20:28:32.281Z,7.68
2022-08-08T20:32:02.875Z,6.80
2022-08-08T20:35:01.038Z,6.57
2022-08-08T20:38:04.047Z,6.55
2022-08-08T20:41:17.469Z,7.45
2022-08-08T20:44:21.808Z,7.22
2022-08-08T20:47:36.110Z,6.97
2022-08-08T20:50:38.779Z,6.30
2022-08-08T20:54:00.959Z,7.70
2022-08-08T20:57:18.816Z,7.32
2022-08-08T21:00:23.580Z,7.65
2022-08-08T21:03:29.722Z,7.43
2022-08-08T21:06:52.435Z,7.83
2022-08-08T21:10:07.913Z,6.55
2022-08-08T21:13:14.580Z,7.03
2022-08-08T21:16:20.565Z,6.55
2022-08-08T21:19:34.068Z,6.70
2022-08-08T21:22:50.038Z,6.00
2022-08-08T21:25:54.971Z,6.32
2022-08-08T21:29:02.226Z,6.53
2022-08-08T21:32:07.688Z,5.60
2022-08-08T21:36:16.192Z,6.40
2022-08-08T21:38:39.174Z,5.47
2022-08-08T21:41:42.944Z,6.55
2022-08-08T21:44:58.450Z,5.82
2022-08-08T21:48:19.969Z,6.68
2022-08-08T21:54:18.711Z,5.30
2022-08-08T21:54:54.305Z,6.40
2022-08-08T21:58:05.491Z,8.13
2022-08-08T22:01:22.446Z,5.38
2022-08-08T22:04:30.447Z,6.47
2022-08-08T22:07:39.724Z,5.53
2022-08-08T22:10:45.207Z,6.57
2022-08-08T22:13:51.822Z,6.10
2022-08-08T22:16:54.633Z,5.82
2022-08-08T22:20:10.534Z,5.40
2022-08-08T22:23:15.663Z,5.82
2022-08-08T22:26:29.834Z,5.73
2022-08-08T22:30:01.161Z,5.97
2022-08-08T22:32:55.515Z,6.15
2022-08-08T22:36:05.694Z,6.32
2022-08-08T22:39:19.425Z,5.65
2022-08-08T22:42:23.919Z,5.67
2022-08-08T22:45:29.626Z,5.78
2022-08-08T22:48:38.819Z,5.72
2022-08-08T22:51:46.591Z,6.20
2022-08-08T22:54:58.845Z,6.25
2022-08-08T22:58:07.038Z,5.27
2022-08-08T23:01:26.738Z,5.55
2022-08-08T23:04:34.649Z,5.15
2022-08-08T23:07:51.886Z,5.30
2022-08-08T23:11:05.850Z,5.75
2022-08-08T23:14:11.374Z,5.30
2022-08-08T23:17:14.425Z,6.45
2022-08-08T23:20:19.820Z,6.35
2022-08-08T23:23:22.913Z,4.90
2022-08-08T23:26:25.330Z,5.22
2022-08-08T23:29:29.751Z,5.40
2022-08-08T23:32:33.850Z,5.97
2022-08-08T23:36:07.574Z,5.90
2022-08-08T23:38:59.261Z,4.78
2022-08-08T23:42:06.571Z,5.38
2022-08-08T23:45:12.603Z,5.33
2022-08-08T23:49:04.182Z,5.15
2022-08-08T23:52:03.655Z,5.38
2022-08-08T23:55:14.304Z,5.03
2022-08-08T23:58:31.809Z,5.05
